sensor_id;sensor_type;location;lat;lon;timestamp;temperature;humidity
43143;DHT22;28750;59.842;17.584;2022-08-19T00:01:56;18.20;99.90
43143;DHT22;28750;59.842;17.584;2022-08-19T00:04:27;18.20;99.90
43143;DHT22;28750;59.842;17.584;2022-08-19T00:06:54;18.10;99.90
43143;DHT22;28750;59.842;17.584;2022-08-19T00:09:23;18.20;99.90
43143;DHT22;28750;59.842;17.584;2022-08-19T00:11:51;18.20;99.90
43143;DHT22;28750;59.842;17.584;2022-08-19T00:14:18;18.20;99.90
43143;DHT22;28750;59.842;17.584;2022-08-19T00:16:46;18.20;99.90
43143;DHT22;28750;59.842;17.584;2022-08-19T00:19:15;18.20;99.90
43143;DHT22;28750;59.842;17.584;2022-08-19T00:21:42;18.20;99.90
43143;DHT22;28750;59.842;17.584;2022-08-19T00:24:12;18.20;99.90
43143;DHT22;28750;59.842;17.584;2022-08-19T00:26:39;18.30;99.90
43143;DHT22;28750;59.842;17.584;2022-08-19T00:29:10;18.20;99.90
43143;DHT22;28750;59.842;17.584;2022-08-19T00:31:37;18.30;99.90
43143;DHT22;28750;59.842;17.584;2022-08-19T00:34:04;18.20;99.90
43143;DHT22;28750;59.842;17.584;2022-08-19T00:36:31;18.30;99.90
43143;DHT22;28750;59.842;17.584;2022-08-19T00:38:59;18.30;99.90
43143;DHT22;28750;59.842;17.584;2022-08-19T00:41:26;18.30;99.90
43143;DHT22;28750;59.842;17.584;2022-08-19T00:44:21;18.30;99.90
43143;DHT22;28750;59.842;17.584;2022-08-19T00:46:51;18.30;99.90
43143;DHT22;28750;59.842;17.584;2022-08-19T00:49:47;18.30;99.90
43143;DHT22;28750;59.842;17.584;2022-08-19T00:52:50;18.30;99.90
43143;DHT22;28750;59.842;17.584;2022-08-19T00:55:23;18.40;99.90
43143;DHT22;28750;59.842;17.584;2022-08-19T00:58:02;18.40;99.90
43143;DHT22;28750;59.842;17.584;2022-08-19T01:00:33;18.30;99.90
43143;DHT22;28750;59.842;17.584;2022-08-19T01:03:06;18.40;99.90
43143;DHT22;28750;59.842;17.584;2022-08-19T01:05:35;18.30;99.90
43143;DHT22;28750;59.842;17.584;2022-08-19T01:08:05;18.30;99.90
43143;DHT22;28750;59.842;17.584;2022-08-19T01:10:36;18.40;99.90
43143;DHT22;28750;59.842;17.584;2022-08-19T01:13:04;18.40;99.90
43143;DHT22;28750;59.842;17.584;2022-08-19T01:15:42;18.40;99.90
43143;DHT22;28750;59.842;17.584;2022-08-19T01:18:12;18.40;99.90
43143;DHT22;28750;59.842;17.584;2022-08-19T01:20:41;18.40;99.90
43143;DHT22;28750;59.842;17.584;2022-08-19T01:23:09;18.40;99.90
43143;DHT22;28750;59.842;17.584;2022-08-19T01:25:42;18.40;99.90
43143;DHT22;28750;59.842;17.584;2022-08-19T01:28:19;18.40;99.90
43143;DHT22;28750;59.842;17.584;2022-08-19T01:30:47;18.40;99.90
43143;DHT22;28750;59.842;17.584;2022-08-19T01:33:14;18.40;99.90
43143;DHT22;28750;59.842;17.584;2022-08-19T01:35:43;18.40;99.90
43143;DHT22;28750;59.842;17.584;2022-08-19T01:38:20;18.40;99.90
43143;DHT22;28750;59.842;17.584;2022-08-19T01:40:48;18.40;99.90
43143;DHT22;28750;59.842;17.584;2022-08-19T01:43:15;18.50;99.90
43143;DHT22;28750;59.842;17.584;2022-08-19T01:45:44;18.50;99.90
43143;DHT22;28750;59.842;17.584;2022-08-19T01:48:13;18.50;99.90
43143;DHT22;28750;59.842;17.584;2022-08-19T01:50:40;18.50;99.90
43143;DHT22;28750;59.842;17.584;2022-08-19T01:53:10;18.50;99.90
43143;DHT22;28750;59.842;17.584;2022-08-19T01:55:40;18.50;99.90
43143;DHT22;28750;59.842;17.584;2022-08-19T01:58:21;18.50;99.90
43143;DHT22;28750;59.842;17.584;2022-08-19T02:00:49;18.60;99.90
43143;DHT22;28750;59.842;17.584;2022-08-19T02:03:16;18.60;99.90
43143;DHT22;28750;59.842;17.584;2022-08-19T02:05:44;18.60;99.90
43143;DHT22;28750;59.842;17.584;2022-08-19T02:08:12;18.60;99.90
43143;DHT22;28750;59.842;17.584;2022-08-19T02:10:41;18.60;99.90
43143;DHT22;28750;59.842;17.584;2022-08-19T02:13:10;18.60;99.90
43143;DHT22;28750;59.842;17.584;2022-08-19T02:15:37;18.60;99.90
43143;DHT22;28750;59.842;17.584;2022-08-19T02:18:05;18.60;99.90
43143;DHT22;28750;59.842;17.584;2022-08-19T02:20:32;18.60;99.90
43143;DHT22;28750;59.842;17.584;2022-08-19T02:23:02;18.60;99.90
43143;DHT22;28750;59.842;17.584;2022-08-19T02:25:29;18.60;99.90
43143;DHT22;28750;59.842;17.584;2022-08-19T02:27:56;18.60;99.90
43143;DHT22;28750;59.842;17.584;2022-08-19T02:30:23;18.60;99.90
43143;DHT22;28750;59.842;17.584;2022-08-19T02:32:52;18.60;99.90
43143;DHT22;28750;59.842;17.584;2022-08-19T02:35:19;18.70;99.90
43143;DHT22;28750;59.842;17.584;2022-08-19T02:37:46;18.60;99.90
43143;DHT22;28750;59.842;17.584;2022-08-19T02:40:32;18.70;99.90
43143;DHT22;28750;59.842;17.584;2022-08-19T02:43:01;18.70;99.90
43143;DHT22;28750;59.842;17.584;2022-08-19T02:45:34;18.60;99.90
43143;DHT22;28750;59.842;17.584;2022-08-19T02:48:02;18.70;99.90
43143;DHT22;28750;59.842;17.584;2022-08-19T02:50:31;18.60;99.90
43143;DHT22;28750;59.842;17.584;2022-08-19T02:52:58;18.60;99.90
43143;DHT22;28750;59.842;17.584;2022-08-19T02:55:25;18.70;99.90
43143;DHT22;28750;59.842;17.584;2022-08-19T02:57:52;18.70;99.90
43143;DHT22;28750;59.842;17.584;2022-08-19T03:00:19;18.70;99.90
43143;DHT22;28750;59.842;17.584;2022-08-19T03:02:46;18.70;99.90
43143;DHT22;28750;59.842;17.584;2022-08-19T03:05:14;18.70;99.90
43143;DHT22;28750;59.842;17.584;2022-08-19T03:07:41;18.70;99.90
43143;DHT22;28750;59.842;17.584;2022-08-19T03:10:08;18.70;99.90
43143;DHT22;28750;59.842;17.584;2022-08-19T03:12:37;18.60;99.90
43143;DHT22;28750;59.842;17.584;2022-08-19T03:15:06;18.70;99.90
43143;DHT22;28750;59.842;17.584;2022-08-19T03:17:34;18.70;99.90
43143;DHT22;28750;59.842;17.584;2022-08-19T03:20:02;18.70;99.90
43143;DHT22;28750;59.842;17.584;2022-08-19T03:22:29;18.70;99.90
43143;DHT22;28750;59.842;17.584;2022-08-19T03:24:56;18.70;99.90
43143;DHT22;28750;59.842;17.584;2022-08-19T03:27:24;18.70;99.90
43143;DHT22;28750;59.842;17.584;2022-08-19T03:29:51;18.70;99.90
43143;DHT22;28750;59.842;17.584;2022-08-19T03:32:18;18.70;99.90
43143;DHT22;28750;59.842;17.584;2022-08-19T03:34:45;18.70;99.90
43143;DHT22;28750;59.842;17.584;2022-08-19T03:37:12;18.70;99.90
43143;DHT22;28750;59.842;17.584;2022-08-19T03:39:40;18.70;99.90
43143;DHT22;28750;59.842;17.584;2022-08-19T03:42:09;18.70;99.90
43143;DHT22;28750;59.842;17.584;2022-08-19T03:44:36;18.70;99.90
43143;DHT22;28750;59.842;17.584;2022-08-19T03:47:04;18.70;99.90
43143;DHT22;28750;59.842;17.584;2022-08-19T03:49:32;18.70;99.90
43143;DHT22;28750;59.842;17.584;2022-08-19T03:52:01;18.70;99.90
43143;DHT22;28750;59.842;17.584;2022-08-19T03:54:30;18.80;99.90
43143;DHT22;28750;59.842;17.584;2022-08-19T03:56:57;18.80;99.90
43143;DHT22;28750;59.842;17.584;2022-08-19T03:59:28;18.80;99.90
43143;DHT22;28750;59.842;17.584;2022-08-19T04:01:58;18.80;99.90
43143;DHT22;28750;59.842;17.584;2022-08-19T04:04:25;18.80;99.90
43143;DHT22;28750;59.842;17.584;2022-08-19T04:06:53;18.80;99.90
43143;DHT22;28750;59.842;17.584;2022-08-19T04:09:20;18.80;99.90
43143;DHT22;28750;59.842;17.584;2022-08-19T04:11:52;18.90;99.90
43143;DHT22;28750;59.842;17.584;2022-08-19T04:14:22;18.80;99.90
43143;DHT22;28750;59.842;17.584;2022-08-19T04:16:50;18.90;99.90
43143;DHT22;28750;59.842;17.584;2022-08-19T04:19:19;18.90;99.90
43143;DHT22;28750;59.842;17.584;2022-08-19T04:21:48;18.90;99.90
43143;DHT22;28750;59.842;17.584;2022-08-19T04:24:16;19.00;99.90
43143;DHT22;28750;59.842;17.584;2022-08-19T04:26:44;18.90;99.90
43143;DHT22;28750;59.842;17.584;2022-08-19T04:29:15;19.00;99.90
43143;DHT22;28750;59.842;17.584;2022-08-19T04:31:44;19.00;99.90
43143;DHT22;28750;59.842;17.584;2022-08-19T04:34:13;19.00;99.90
43143;DHT22;28750;59.842;17.584;2022-08-19T04:36:43;19.00;99.90
43143;DHT22;28750;59.842;17.584;2022-08-19T04:39:18;19.00;99.90
43143;DHT22;28750;59.842;17.584;2022-08-19T04:41:47;19.10;99.90
43143;DHT22;28750;59.842;17.584;2022-08-19T04:44:40;19.10;99.90
43143;DHT22;28750;59.842;17.584;2022-08-19T04:47:07;19.10;99.90
43143;DHT22;28750;59.842;17.584;2022-08-19T04:49:34;19.10;99.90
43143;DHT22;28750;59.842;17.584;2022-08-19T04:52:01;19.10;99.90
43143;DHT22;28750;59.842;17.584;2022-08-19T04:54:28;19.20;99.90
43143;DHT22;28750;59.842;17.584;2022-08-19T04:56:55;19.20;99.90
43143;DHT22;28750;59.842;17.584;2022-08-19T04:59:22;19.20;99.90
43143;DHT22;28750;59.842;17.584;2022-08-19T05:01:49;19.20;99.90
43143;DHT22;28750;59.842;17.584;2022-08-19T05:04:19;19.30;99.90
43143;DHT22;28750;59.842;17.584;2022-08-19T05:06:47;19.30;99.90
43143;DHT22;28750;59.842;17.584;2022-08-19T05:09:15;19.20;99.90
43143;DHT22;28750;59.842;17.584;2022-08-19T05:11:45;19.30;99.90
43143;DHT22;28750;59.842;17.584;2022-08-19T05:14:12;19.30;99.90
43143;DHT22;28750;59.842;17.584;2022-08-19T05:16:40;19.40;99.90
43143;DHT22;28750;59.842;17.584;2022-08-19T05:19:07;19.40;99.90
43143;DHT22;28750;59.842;17.584;2022-08-19T05:21:52;19.40;99.90
43143;DHT22;28750;59.842;17.584;2022-08-19T05:24:36;19.40;99.90
43143;DHT22;28750;59.842;17.584;2022-08-19T05:27:03;19.40;99.90
43143;DHT22;28750;59.842;17.584;2022-08-19T05:29:32;19.50;99.90
43143;DHT22;28750;59.842;17.584;2022-08-19T05:32:00;19.50;99.90
43143;DHT22;28750;59.842;17.584;2022-08-19T05:34:27;19.50;99.90
43143;DHT22;28750;59.842;17.584;2022-08-19T05:36:56;19.50;99.90
43143;DHT22;28750;59.842;17.584;2022-08-19T05:39:26;19.50;99.90
43143;DHT22;28750;59.842;17.584;2022-08-19T05:41:57;19.60;99.90
43143;DHT22;28750;59.842;17.584;2022-08-19T05:44:27;19.50;99.90
43143;DHT22;28750;59.842;17.584;2022-08-19T05:46:55;19.50;99.90
43143;DHT22;28750;59.842;17.584;2022-08-19T05:49:23;19.50;99.90
43143;DHT22;28750;59.842;17.584;2022-08-19T05:51:51;19.60;99.90
43143;DHT22;28750;59.842;17.584;2022-08-19T05:54:18;19.60;99.90
43143;DHT22;28750;59.842;17.584;2022-08-19T05:56:46;19.60;99.90
43143;DHT22;28750;59.842;17.584;2022-08-19T05:59:15;19.70;99.90
43143;DHT22;28750;59.842;17.584;2022-08-19T06:01:45;19.80;99.90
43143;DHT22;28750;59.842;17.584;2022-08-19T06:04:17;19.80;99.90
43143;DHT22;28750;59.842;17.584;2022-08-19T06:06:49;19.80;99.90
43143;DHT22;28750;59.842;17.584;2022-08-19T06:09:18;19.60;99.90
43143;DHT22;28750;59.842;17.584;2022-08-19T06:11:48;19.70;99.90
43143;DHT22;28750;59.842;17.584;2022-08-19T06:14:24;19.90;99.90
43143;DHT22;28750;59.842;17.584;2022-08-19T06:16:51;19.90;99.90
43143;DHT22;28750;59.842;17.584;2022-08-19T06:19:20;19.90;99.90
43143;DHT22;28750;59.842;17.584;2022-08-19T06:21:51;19.90;99.90
43143;DHT22;28750;59.842;17.584;2022-08-19T06:24:21;20.00;99.90
43143;DHT22;28750;59.842;17.584;2022-08-19T06:26:51;20.00;99.90
43143;DHT22;28750;59.842;17.584;2022-08-19T06:29:21;20.00;99.90
43143;DHT22;28750;59.842;17.584;2022-08-19T06:31:51;20.10;99.90
43143;DHT22;28750;59.842;17.584;2022-08-19T06:34:19;20.10;99.90
43143;DHT22;28750;59.842;17.584;2022-08-19T06:36:50;20.10;99.90
43143;DHT22;28750;59.842;17.584;2022-08-19T06:39:26;20.00;99.90
43143;DHT22;28750;59.842;17.584;2022-08-19T06:41:57;20.20;99.90
43143;DHT22;28750;59.842;17.584;2022-08-19T06:44:27;20.30;99.90
43143;DHT22;28750;59.842;17.584;2022-08-19T06:46:55;20.30;99.90
43143;DHT22;28750;59.842;17.584;2022-08-19T06:49:22;20.30;99.90
43143;DHT22;28750;59.842;17.584;2022-08-19T06:51:51;20.20;99.90
43143;DHT22;28750;59.842;17.584;2022-08-19T06:54:19;20.20;99.90
43143;DHT22;28750;59.842;17.584;2022-08-19T06:56:46;20.30;99.90
43143;DHT22;28750;59.842;17.584;2022-08-19T06:59:16;20.30;99.90
43143;DHT22;28750;59.842;17.584;2022-08-19T07:01:48;20.30;99.90
43143;DHT22;28750;59.842;17.584;2022-08-19T07:04:21;20.40;99.90
43143;DHT22;28750;59.842;17.584;2022-08-19T07:06:49;20.50;99.90
43143;DHT22;28750;59.842;17.584;2022-08-19T07:09:18;20.50;99.90
43143;DHT22;28750;59.842;17.584;2022-08-19T07:11:46;20.60;99.90
43143;DHT22;28750;59.842;17.584;2022-08-19T07:14:16;20.60;99.90
43143;DHT22;28750;59.842;17.584;2022-08-19T07:16:45;20.50;99.90
43143;DHT22;28750;59.842;17.584;2022-08-19T07:19:13;20.60;99.90
43143;DHT22;28750;59.842;17.584;2022-08-19T07:21:40;20.50;99.90
43143;DHT22;28750;59.842;17.584;2022-08-19T07:24:08;20.60;99.90
43143;DHT22;28750;59.842;17.584;2022-08-19T07:26:41;20.80;99.90
43143;DHT22;28750;59.842;17.584;2022-08-19T07:29:10;20.70;99.90
43143;DHT22;28750;59.842;17.584;2022-08-19T07:31:38;20.80;99.90
43143;DHT22;28750;59.842;17.584;2022-08-19T07:34:07;20.70;99.90
43143;DHT22;28750;59.842;17.584;2022-08-19T07:36:38;20.80;99.90
43143;DHT22;28750;59.842;17.584;2022-08-19T07:39:15;20.80;99.90
43143;DHT22;28750;59.842;17.584;2022-08-19T07:41:43;20.70;99.90
43143;DHT22;28750;59.842;17.584;2022-08-19T07:44:10;20.80;99.90
43143;DHT22;28750;59.842;17.584;2022-08-19T07:46:40;21.00;99.90
43143;DHT22;28750;59.842;17.584;2022-08-19T07:49:09;21.00;99.90
43143;DHT22;28750;59.842;17.584;2022-08-19T07:51:50;20.90;99.90
43143;DHT22;28750;59.842;17.584;2022-08-19T07:54:18;21.00;99.90
43143;DHT22;28750;59.842;17.584;2022-08-19T07:56:46;21.10;99.90
43143;DHT22;28750;59.842;17.584;2022-08-19T07:59:13;20.90;99.90
43143;DHT22;28750;59.842;17.584;2022-08-19T08:01:40;21.00;99.90
43143;DHT22;28750;59.842;17.584;2022-08-19T08:04:08;21.00;99.90
43143;DHT22;28750;59.842;17.584;2022-08-19T08:06:53;21.00;99.90
43143;DHT22;28750;59.842;17.584;2022-08-19T08:09:40;21.20;99.90
43143;DHT22;28750;59.842;17.584;2022-08-19T08:12:09;21.30;99.90
43143;DHT22;28750;59.842;17.584;2022-08-19T08:14:46;21.40;99.90
43143;DHT22;28750;59.842;17.584;2022-08-19T08:17:15;21.50;99.90
43143;DHT22;28750;59.842;17.584;2022-08-19T08:19:44;21.70;99.90
43143;DHT22;28750;59.842;17.584;2022-08-19T08:22:15;21.50;99.90
43143;DHT22;28750;59.842;17.584;2022-08-19T08:25:13;21.60;99.90
43143;DHT22;28750;59.842;17.584;2022-08-19T08:27:44;21.80;99.90
43143;DHT22;28750;59.842;17.584;2022-08-19T08:30:15;22.10;99.90
43143;DHT22;28750;59.842;17.584;2022-08-19T08:32:42;22.30;99.90
43143;DHT22;28750;59.842;17.584;2022-08-19T08:35:12;22.40;99.90
43143;DHT22;28750;59.842;17.584;2022-08-19T08:37:40;22.70;99.90
43143;DHT22;28750;59.842;17.584;2022-08-19T08:43:13;23.00;99.90
43143;DHT22;28750;59.842;17.584;2022-08-19T08:46:08;23.70;99.90
43143;DHT22;28750;59.842;17.584;2022-08-19T08:48:46;24.30;99.90
43143;DHT22;28750;59.842;17.584;2022-08-19T08:51:28;24.30;99.90
43143;DHT22;28750;59.842;17.584;2022-08-19T08:53:57;23.90;99.90
43143;DHT22;28750;59.842;17.584;2022-08-19T08:56:24;23.80;99.90
43143;DHT22;28750;59.842;17.584;2022-08-19T08:59:10;23.30;99.90
43143;DHT22;28750;59.842;17.584;2022-08-19T09:01:39;23.10;99.90
43143;DHT22;28750;59.842;17.584;2022-08-19T09:04:07;23.00;99.90
43143;DHT22;28750;59.842;17.584;2022-08-19T09:06:51;23.10;99.90
43143;DHT22;28750;59.842;17.584;2022-08-19T09:09:34;24.10;99.90
43143;DHT22;28750;59.842;17.584;2022-08-19T09:14:44;24.30;99.90
43143;DHT22;28750;59.842;17.584;2022-08-19T09:17:14;24.50;85.70
43143;DHT22;28750;59.842;17.584;2022-08-19T09:22:35;24.30;96.20
43143;DHT22;28750;59.842;17.584;2022-08-19T09:25:03;24.50;70.50
43143;DHT22;28750;59.842;17.584;2022-08-19T09:27:30;24.70;90.50
43143;DHT22;28750;59.842;17.584;2022-08-19T09:29:58;24.70;90.30
43143;DHT22;28750;59.842;17.584;2022-08-19T09:32:25;25.30;12.20
43143;DHT22;28750;59.842;17.584;2022-08-19T09:34:53;25.30;99.90
43143;DHT22;28750;59.842;17.584;2022-08-19T09:37:24;25.60;99.90
43143;DHT22;28750;59.842;17.584;2022-08-19T09:39:51;26.10;99.90
43143;DHT22;28750;59.842;17.584;2022-08-19T09:42:18;26.30;99.90
43143;DHT22;28750;59.842;17.584;2022-08-19T09:44:46;26.40;99.90
43143;DHT22;28750;59.842;17.584;2022-08-19T09:47:13;26.70;99.90
43143;DHT22;28750;59.842;17.584;2022-08-19T09:49:41;27.20;99.90
43143;DHT22;28750;59.842;17.584;2022-08-19T09:52:11;27.90;1.00
43143;DHT22;28750;59.842;17.584;2022-08-19T09:54:39;27.60;99.90
43143;DHT22;28750;59.842;17.584;2022-08-19T09:57:06;28.00;99.90
43143;DHT22;28750;59.842;17.584;2022-08-19T09:59:33;28.30;99.90
43143;DHT22;28750;59.842;17.584;2022-08-19T10:02:01;28.50;95.20
43143;DHT22;28750;59.842;17.584;2022-08-19T10:04:29;28.70;99.90
43143;DHT22;28750;59.842;17.584;2022-08-19T10:07:10;28.80;99.90
43143;DHT22;28750;59.842;17.584;2022-08-19T10:09:37;29.10;1.00
43143;DHT22;28750;59.842;17.584;2022-08-19T10:12:07;29.50;1.00
43143;DHT22;28750;59.842;17.584;2022-08-19T10:14:34;29.80;99.90
43143;DHT22;28750;59.842;17.584;2022-08-19T10:17:02;29.80;99.90
43143;DHT22;28750;59.842;17.584;2022-08-19T10:19:29;30.00;99.90
43143;DHT22;28750;59.842;17.584;2022-08-19T10:22:03;30.20;99.90
43143;DHT22;28750;59.842;17.584;2022-08-19T10:24:31;30.50;99.90
43143;DHT22;28750;59.842;17.584;2022-08-19T10:27:00;30.70;1.00
43143;DHT22;28750;59.842;17.584;2022-08-19T10:29:29;30.50;40.10
43143;DHT22;28750;59.842;17.584;2022-08-19T10:31:57;30.40;39.30
43143;DHT22;28750;59.842;17.584;2022-08-19T10:34:26;30.50;8.00
43143;DHT22;28750;59.842;17.584;2022-08-19T10:36:53;30.50;99.90
43143;DHT22;28750;59.842;17.584;2022-08-19T10:39:20;30.30;1.00
43143;DHT22;28750;59.842;17.584;2022-08-19T10:41:47;30.50;1.00
43143;DHT22;28750;59.842;17.584;2022-08-19T10:44:14;30.50;1.00
43143;DHT22;28750;59.842;17.584;2022-08-19T10:46:43;31.30;99.90
43143;DHT22;28750;59.842;17.584;2022-08-19T10:49:12;31.40;1.00
43143;DHT22;28750;59.842;17.584;2022-08-19T10:51:40;32.20;99.90
43143;DHT22;28750;59.842;17.584;2022-08-19T10:54:25;32.30;99.90
43143;DHT22;28750;59.842;17.584;2022-08-19T10:57:13;32.20;99.90
43143;DHT22;28750;59.842;17.584;2022-08-19T10:59:39;31.40;99.90
43143;DHT22;28750;59.842;17.584;2022-08-19T11:02:09;31.90;99.90
43143;DHT22;28750;59.842;17.584;2022-08-19T11:04:38;32.20;99.90
43143;DHT22;28750;59.842;17.584;2022-08-19T11:07:06;32.60;99.90
43143;DHT22;28750;59.842;17.584;2022-08-19T11:09:39;32.30;99.90
43143;DHT22;28750;59.842;17.584;2022-08-19T11:12:08;32.70;99.90
43143;DHT22;28750;59.842;17.584;2022-08-19T11:14:36;32.20;89.00
43143;DHT22;28750;59.842;17.584;2022-08-19T11:17:04;32.60;99.90
43143;DHT22;28750;59.842;17.584;2022-08-19T11:19:32;32.70;99.90
43143;DHT22;28750;59.842;17.584;2022-08-19T11:21:59;33.20;99.90
43143;DHT22;28750;59.842;17.584;2022-08-19T11:24:29;33.00;99.90
43143;DHT22;28750;59.842;17.584;2022-08-19T11:27:05;33.00;95.60
43143;DHT22;28750;59.842;17.584;2022-08-19T11:29:35;33.30;34.10
43143;DHT22;28750;59.842;17.584;2022-08-19T11:32:08;33.30;53.70
43143;DHT22;28750;59.842;17.584;2022-08-19T11:34:36;33.20;9.50
43143;DHT22;28750;59.842;17.584;2022-08-19T11:37:03;33.30;1.00
43143;DHT22;28750;59.842;17.584;2022-08-19T11:39:32;32.40;1.00
43143;DHT22;28750;59.842;17.584;2022-08-19T11:42:01;32.90;71.60
43143;DHT22;28750;59.842;17.584;2022-08-19T11:44:49;33.30;1.00
43143;DHT22;28750;59.842;17.584;2022-08-19T11:47:16;33.10;1.00
43143;DHT22;28750;59.842;17.584;2022-08-19T11:49:43;33.10;1.00
43143;DHT22;28750;59.842;17.584;2022-08-19T11:52:10;33.10;99.90
43143;DHT22;28750;59.842;17.584;2022-08-19T11:54:37;33.30;93.60
43143;DHT22;28750;59.842;17.584;2022-08-19T11:57:05;32.70;1.00
43143;DHT22;28750;59.842;17.584;2022-08-19T11:59:31;33.40;1.00
43143;DHT22;28750;59.842;17.584;2022-08-19T12:01:58;33.00;1.00
43143;DHT22;28750;59.842;17.584;2022-08-19T12:04:25;33.10;1.00
43143;DHT22;28750;59.842;17.584;2022-08-19T12:06:52;33.30;5.30
43143;DHT22;28750;59.842;17.584;2022-08-19T12:09:20;32.90;1.00
43143;DHT22;28750;59.842;17.584;2022-08-19T12:11:47;33.30;1.80
43143;DHT22;28750;59.842;17.584;2022-08-19T12:14:14;34.10;1.00
43143;DHT22;28750;59.842;17.584;2022-08-19T12:16:44;33.60;1.00
43143;DHT22;28750;59.842;17.584;2022-08-19T12:19:12;33.50;1.00
43143;DHT22;28750;59.842;17.584;2022-08-19T12:21:39;33.60;1.00
43143;DHT22;28750;59.842;17.584;2022-08-19T12:24:06;33.40;1.00
43143;DHT22;28750;59.842;17.584;2022-08-19T12:26:34;32.10;80.90
43143;DHT22;28750;59.842;17.584;2022-08-19T12:29:02;31.90;44.60
43143;DHT22;28750;59.842;17.584;2022-08-19T12:31:29;31.90;18.20
43143;DHT22;28750;59.842;17.584;2022-08-19T12:33:57;32.10;1.00
43143;DHT22;28750;59.842;17.584;2022-08-19T12:36:25;32.20;93.00
43143;DHT22;28750;59.842;17.584;2022-08-19T12:38:52;32.40;1.00
43143;DHT22;28750;59.842;17.584;2022-08-19T12:41:20;32.60;73.50
43143;DHT22;28750;59.842;17.584;2022-08-19T12:43:47;32.60;65.50
43143;DHT22;28750;59.842;17.584;2022-08-19T12:46:15;32.60;8.90
43143;DHT22;28750;59.842;17.584;2022-08-19T12:48:42;32.40;1.00
43143;DHT22;28750;59.842;17.584;2022-08-19T12:51:13;32.40;1.00
43143;DHT22;28750;59.842;17.584;2022-08-19T12:53:41;32.40;1.00
43143;DHT22;28750;59.842;17.584;2022-08-19T12:56:10;32.40;18.00
43143;DHT22;28750;59.842;17.584;2022-08-19T12:58:40;31.80;1.00
43143;DHT22;28750;59.842;17.584;2022-08-19T13:01:09;32.10;1.00
43143;DHT22;28750;59.842;17.584;2022-08-19T13:03:37;32.00;16.30
43143;DHT22;28750;59.842;17.584;2022-08-19T13:06:06;31.90;1.00
43143;DHT22;28750;59.842;17.584;2022-08-19T13:08:34;31.80;10.60
43143;DHT22;28750;59.842;17.584;2022-08-19T13:11:12;31.40;9.20
43143;DHT22;28750;59.842;17.584;2022-08-19T13:13:41;31.00;88.10
43143;DHT22;28750;59.842;17.584;2022-08-19T13:16:10;31.10;90.70
43143;DHT22;28750;59.842;17.584;2022-08-19T13:18:39;30.80;84.00
43143;DHT22;28750;59.842;17.584;2022-08-19T13:21:08;30.50;99.90
43143;DHT22;28750;59.842;17.584;2022-08-19T13:23:37;30.40;99.90
43143;DHT22;28750;59.842;17.584;2022-08-19T13:26:06;30.30;99.90
43143;DHT22;28750;59.842;17.584;2022-08-19T13:28:34;30.10;99.90
43143;DHT22;28750;59.842;17.584;2022-08-19T13:31:21;30.10;99.90
43143;DHT22;28750;59.842;17.584;2022-08-19T13:34:06;30.20;99.90
43143;DHT22;28750;59.842;17.584;2022-08-19T13:36:34;30.00;95.50
43143;DHT22;28750;59.842;17.584;2022-08-19T13:39:01;30.20;86.20
43143;DHT22;28750;59.842;17.584;2022-08-19T13:41:29;30.20;33.60
43143;DHT22;28750;59.842;17.584;2022-08-19T13:43:56;30.20;21.30
43143;DHT22;28750;59.842;17.584;2022-08-19T13:46:27;30.20;51.90
43143;DHT22;28750;59.842;17.584;2022-08-19T13:48:55;30.10;51.30
43143;DHT22;28750;59.842;17.584;2022-08-19T13:51:22;30.00;99.90
43143;DHT22;28750;59.842;17.584;2022-08-19T13:53:49;30.10;92.50
43143;DHT22;28750;59.842;17.584;2022-08-19T13:56:18;29.90;90.60
43143;DHT22;28750;59.842;17.584;2022-08-19T13:58:46;29.80;97.10
43143;DHT22;28750;59.842;17.584;2022-08-19T14:01:19;29.70;99.90
43143;DHT22;28750;59.842;17.584;2022-08-19T14:03:47;29.70;67.50
43143;DHT22;28750;59.842;17.584;2022-08-19T14:06:14;29.70;99.90
43143;DHT22;28750;59.842;17.584;2022-08-19T14:08:42;29.60;90.50
43143;DHT22;28750;59.842;17.584;2022-08-19T14:11:09;29.60;97.10
43143;DHT22;28750;59.842;17.584;2022-08-19T14:13:36;29.50;99.90
43143;DHT22;28750;59.842;17.584;2022-08-19T14:16:12;29.50;34.10
43143;DHT22;28750;59.842;17.584;2022-08-19T14:18:39;29.50;99.90
43143;DHT22;28750;59.842;17.584;2022-08-19T14:21:07;29.80;99.90
43143;DHT22;28750;59.842;17.584;2022-08-19T14:23:34;29.80;70.40
43143;DHT22;28750;59.842;17.584;2022-08-19T14:26:08;30.00;99.90
43143;DHT22;28750;59.842;17.584;2022-08-19T14:28:37;30.20;99.90
43143;DHT22;28750;59.842;17.584;2022-08-19T14:31:13;30.10;99.90
43143;DHT22;28750;59.842;17.584;2022-08-19T14:33:42;30.20;99.90
43143;DHT22;28750;59.842;17.584;2022-08-19T14:36:09;30.30;48.70
43143;DHT22;28750;59.842;17.584;2022-08-19T14:38:36;30.60;11.90
43143;DHT22;28750;59.842;17.584;2022-08-19T14:41:23;30.80;17.50
43143;DHT22;28750;59.842;17.584;2022-08-19T14:43:52;30.90;4.10
43143;DHT22;28750;59.842;17.584;2022-08-19T14:46:23;30.70;1.00
43143;DHT22;28750;59.842;17.584;2022-08-19T14:48:50;30.90;1.00
43143;DHT22;28750;59.842;17.584;2022-08-19T14:51:19;30.80;1.00
43143;DHT22;28750;59.842;17.584;2022-08-19T14:53:46;30.60;1.00
43143;DHT22;28750;59.842;17.584;2022-08-19T14:56:16;30.60;29.00
43143;DHT22;28750;59.842;17.584;2022-08-19T14:58:44;30.50;44.50
43143;DHT22;28750;59.842;17.584;2022-08-19T15:01:12;30.30;1.00
43143;DHT22;28750;59.842;17.584;2022-08-19T15:03:39;30.30;1.80
43143;DHT22;28750;59.842;17.584;2022-08-19T15:06:07;30.30;1.00
43143;DHT22;28750;59.842;17.584;2022-08-19T15:08:36;30.20;1.00
43143;DHT22;28750;59.842;17.584;2022-08-19T15:11:10;30.20;1.00
43143;DHT22;28750;59.842;17.584;2022-08-19T15:13:38;29.90;99.90
43143;DHT22;28750;59.842;17.584;2022-08-19T15:16:06;29.60;99.90
43143;DHT22;28750;59.842;17.584;2022-08-19T15:18:33;29.30;99.90
43143;DHT22;28750;59.842;17.584;2022-08-19T15:21:01;29.20;99.90
43143;DHT22;28750;59.842;17.584;2022-08-19T15:23:29;29.10;99.90
43143;DHT22;28750;59.842;17.584;2022-08-19T15:25:56;28.80;99.90
43143;DHT22;28750;59.842;17.584;2022-08-19T15:28:25;28.80;99.90
43143;DHT22;28750;59.842;17.584;2022-08-19T15:30:53;28.60;99.90
43143;DHT22;28750;59.842;17.584;2022-08-19T15:33:20;28.50;99.90
43143;DHT22;28750;59.842;17.584;2022-08-19T15:35:47;28.50;99.90
43143;DHT22;28750;59.842;17.584;2022-08-19T15:38:15;28.50;99.90
43143;DHT22;28750;59.842;17.584;2022-08-19T15:40:45;28.50;99.90
43143;DHT22;28750;59.842;17.584;2022-08-19T15:43:14;28.70;99.90